Time;durP1;ratioP1;P1;durP2;ratioP2;P2;SDS_P1;SDS_P2;PMS_P1;PMS_P2;Temp;Humidity;BMP_temperature;BMP_pressure;BME280_temperature;BME280_humidity;BME280_pressure;Samples;Min_cycle;Max_cycle;Signal;HPM_P1;HPM_P2
2023/03/29 00:02:06;;;;;;;;;21.40;21.20;;;;;;;;5065251;29;8855;-65
2023/03/29 00:04:37;;;;;;;;;20.60;20.60;;;;;;;;5032980;29;8798;-66
2023/03/29 00:07:08;;;;;;;;;21.60;21.20;;;;;;;;5032862;29;8774;-66
2023/03/29 00:09:41;;;;;;;;;22.80;22.80;;;;;;;;5064556;29;8813;-65
2023/03/29 00:12:12;;;;;;;;;23.40;23.40;;;;;;;;5048924;29;9616;-66
2023/03/29 00:15:02;;;;;;;;;22.40;22.40;;;;;;;;5046905;29;9649;-66
2023/03/29 00:17:34;;;;;;;;;17.20;17.20;;;;;;;;5032662;29;8810;-66
2023/03/29 00:20:23;;;;;;;;;19.60;18.40;;;;;;;;5065004;29;8964;-65
2023/03/29 00:22:54;;;;;;;;;20.25;20.25;;;;;;;;5032940;29;8934;-65
2023/03/29 00:25:25;;;;;;;;;16.25;16.25;;;;;;;;5064965;29;8869;-65
2023/03/29 00:27:56;;;;;;;;;18.80;18.80;;;;;;;;5048033;29;8809;-66
2023/03/29 00:30:27;;;;;;;;;21.00;21.00;;;;;;;;5033467;29;8786;-66
2023/03/29 00:32:59;;;;;;;;;16.60;16.60;;;;;;;;5048110;29;8794;-65
2023/03/29 00:35:30;;;;;;;;;25.00;25.00;;;;;;;;5048266;29;9431;-65
2023/03/29 00:38:02;;;;;;;;;28.60;28.60;;;;;;;;5032883;29;11651;-66
2023/03/29 00:40:33;;;;;;;;;26.20;26.20;;;;;;;;5048144;29;9184;-65
2023/03/29 00:43:05;;;;;;;;;17.00;17.00;;;;;;;;5065048;29;8846;-65
2023/03/29 00:45:36;;;;;;;;;13.60;13.60;;;;;;;;5051975;29;10541;-65
2023/03/29 00:48:09;;;;;;;;;10.20;10.20;;;;;;;;5051673;29;9570;-66
2023/03/29 00:50:49;;;;;;;;;8.00;6.60;;;;;;;;5036252;29;8869;-65
2023/03/29 00:53:26;;;;;;;;;7.00;7.00;;;;;;;;5051377;29;8806;-65
2023/03/29 00:56:03;;;;;;;;;6.40;6.40;;;;;;;;5068262;29;8901;-65
2023/03/29 00:58:58;;;;;;;;;34.20;30.80;;;;;;;;5051697;29;8872;-65
2023/03/29 01:01:44;;;;;;;;;12.00;12.00;;;;;;;;5051225;29;8798;-67
2023/03/29 01:04:28;;;;;;;;;5.60;5.60;;;;;;;;5068409;29;8781;-66
2023/03/29 01:07:05;;;;;;;;;4.40;4.40;;;;;;;;5035888;29;8786;-66
2023/03/29 01:09:37;;;;;;;;;5.00;5.00;;;;;;;;5051224;29;8813;-66
2023/03/29 01:12:29;;;;;;;;;3.80;3.80;;;;;;;;5068211;29;8848;-66
2023/03/29 01:15:07;;;;;;;;;5.00;5.00;;;;;;;;5051215;29;8782;-66
2023/03/29 01:17:42;;;;;;;;;4.80;4.80;;;;;;;;5036045;29;8786;-66
2023/03/29 01:20:21;;;;;;;;;10.40;9.60;;;;;;;;5051305;29;8810;-66
2023/03/29 01:23:07;;;;;;;;;5.00;4.40;;;;;;;;5051460;29;8817;-66
2023/03/29 01:25:56;;;;;;;;;9.40;8.60;;;;;;;;5050735;29;8927;-65
2023/03/29 01:28:39;;;;;;;;;5.00;5.00;;;;;;;;5067741;29;8912;-67
2023/03/29 01:31:14;;;;;;;;;49.20;45.40;;;;;;;;5067666;29;11447;-66
2023/03/29 01:33:48;;;;;;;;;6.60;6.60;;;;;;;;5051316;29;8810;-66
2023/03/29 01:36:19;;;;;;;;;3.00;3.00;;;;;;;;5035518;29;8790;-66
2023/03/29 01:38:54;;;;;;;;;7.00;6.00;;;;;;;;5035242;29;8802;-66
2023/03/29 01:41:42;;;;;;;;;3.00;3.00;;;;;;;;5051451;29;8861;-67
2023/03/29 01:44:38;;;;;;;;;5.80;5.80;;;;;;;;5037740;29;9514;-67
2023/03/29 01:47:09;;;;;;;;;9.20;7.80;;;;;;;;5050467;29;8786;-66
2023/03/29 01:49:44;;;;;;;;;8.20;8.20;;;;;;;;5050337;29;8865;-67
2023/03/29 01:52:21;;;;;;;;;9.00;7.40;;;;;;;;5035346;29;8778;-66
2023/03/29 01:54:59;;;;;;;;;9.60;9.60;;;;;;;;5034200;29;8818;-67
2023/03/29 01:57:31;;;;;;;;;6.80;6.80;;;;;;;;5050529;29;8810;-67
2023/03/29 02:00:08;;;;;;;;;75.00;60.40;;;;;;;;5067233;29;8790;-67
2023/03/29 02:02:44;;;;;;;;;12.00;12.00;;;;;;;;5067411;29;8921;-67
2023/03/29 02:05:15;;;;;;;;;5.60;5.60;;;;;;;;5066899;29;9537;-66
2023/03/29 02:07:47;;;;;;;;;3.40;3.40;;;;;;;;5050433;29;8797;-67
2023/03/29 02:10:19;;;;;;;;;4.00;4.00;;;;;;;;5049885;29;8813;-67
2023/03/29 02:12:50;;;;;;;;;6.00;6.00;;;;;;;;5050292;29;8824;-67
2023/03/29 02:15:22;;;;;;;;;4.00;4.00;;;;;;;;5019425;29;9574;-67
2023/03/29 02:17:55;;;;;;;;;6.00;6.00;;;;;;;;5034619;29;9243;-67
2023/03/29 02:20:28;;;;;;;;;9.40;9.00;;;;;;;;5034755;29;9550;-67
2023/03/29 02:23:12;;;;;;;;;9.60;8.20;;;;;;;;5050227;29;8828;-67
2023/03/29 02:25:44;;;;;;;;;10.40;10.40;;;;;;;;5048876;29;8873;-68
2023/03/29 02:28:16;;;;;;;;;60.00;52.00;;;;;;;;5049612;29;8794;-67
2023/03/29 02:31:14;;;;;;;;;24.60;21.00;;;;;;;;5049920;29;8832;-67
2023/03/29 02:33:45;;;;;;;;;7.00;6.40;;;;;;;;5049946;29;8826;-67
2023/03/29 02:36:39;;;;;;;;;5.20;5.20;;;;;;;;5045000;29;8819;-68
2023/03/29 02:39:14;;;;;;;;;4.40;4.00;;;;;;;;5065714;29;8925;-68
2023/03/29 02:41:47;;;;;;;;;4.40;4.40;;;;;;;;5033991;29;8953;-68
2023/03/29 02:44:20;;;;;;;;;0.80;0.80;;;;;;;;5018778;29;8928;-68
2023/03/29 02:46:55;;;;;;;;;6.00;6.00;;;;;;;;5034241;29;8936;-68
2023/03/29 02:49:26;;;;;;;;;7.60;7.60;;;;;;;;5049105;29;8952;-68
2023/03/29 02:52:02;;;;;;;;;38.00;33.20;;;;;;;;5033857;29;9530;-68
2023/03/29 02:54:33;;;;;;;;;14.00;14.00;;;;;;;;5033712;29;8845;-68
2023/03/29 02:57:07;;;;;;;;;9.40;9.40;;;;;;;;5049544;29;8889;-68
2023/03/29 02:59:39;;;;;;;;;15.20;14.40;;;;;;;;5049236;29;8793;-67
2023/03/29 03:02:11;;;;;;;;;6.40;5.60;;;;;;;;5048930;29;8833;-67
2023/03/29 03:05:00;;;;;;;;;12.40;11.60;;;;;;;;5051189;29;8893;-67
2023/03/29 03:07:32;;;;;;;;;4.40;4.40;;;;;;;;5048829;29;8802;-67
2023/03/29 03:10:04;;;;;;;;;2.60;2.60;;;;;;;;5049099;29;8964;-66
2023/03/29 03:12:36;;;;;;;;;5.20;5.20;;;;;;;;5048625;29;8920;-67
2023/03/29 03:15:26;;;;;;;;;6.40;6.00;;;;;;;;5041726;29;8865;-66
2023/03/29 03:17:57;;;;;;;;;9.00;7.80;;;;;;;;5018248;29;8819;-66
2023/03/29 03:20:28;;;;;;;;;3.60;3.60;;;;;;;;5048881;29;8794;-67
2023/03/29 03:23:02;;;;;;;;;9.40;9.40;;;;;;;;5032057;29;8814;-67
2023/03/29 03:25:34;;;;;;;;;40.60;40.00;;;;;;;;5048565;29;9593;-67
2023/03/29 03:28:05;;;;;;;;;11.80;11.20;;;;;;;;5048571;29;8825;-67
2023/03/29 03:30:36;;;;;;;;;6.60;6.60;;;;;;;;5033546;29;8798;-66
2023/03/29 03:33:27;;;;;;;;;9.80;9.80;;;;;;;;5048264;29;9537;-67
2023/03/29 03:36:16;;;;;;;;;29.20;29.00;;;;;;;;5073054;29;9500;-67
2023/03/29 03:38:48;;;;;;;;;16.00;16.00;;;;;;;;5059287;29;8813;-67
2023/03/29 03:41:20;;;;;;;;;8.60;8.60;;;;;;;;5048267;29;8798;-67
2023/03/29 03:43:51;;;;;;;;;92.00;68.33;;;;;;;;5032242;29;8916;-68
2023/03/29 03:46:22;;;;;;;;;11.20;10.40;;;;;;;;5048184;29;11575;-67
2023/03/29 03:48:54;;;;;;;;;3.00;3.00;;;;;;;;5033312;29;8888;-67
2023/03/29 03:51:37;;;;;;;;;7.00;7.00;;;;;;;;5048721;29;8809;-66
2023/03/29 03:54:08;;;;;;;;;5.00;5.00;;;;;;;;5032147;29;8833;-67
2023/03/29 03:56:39;;;;;;;;;7.00;7.00;;;;;;;;5048505;29;8848;-67
2023/03/29 03:59:21;;;;;;;;;1.20;1.20;;;;;;;;5032690;29;8814;-66
2023/03/29 04:02:09;;;;;;;;;1.00;1.00;;;;;;;;5033065;29;8848;-67
2023/03/29 04:04:42;;;;;;;;;19.20;18.40;;;;;;;;5032527;29;8790;-75
2023/03/29 04:07:17;;;;;;;;;10.60;9.80;;;;;;;;5046059;29;8818;-76
2023/03/29 04:10:10;;;;;;;;;4.60;4.60;;;;;;;;5024618;29;8801;-74
2023/03/29 04:12:41;;;;;;;;;0.80;0.80;;;;;;;;5033145;29;8881;-73
2023/03/29 04:15:13;;;;;;;;;6.00;6.00;;;;;;;;5047857;29;8874;-73
2023/03/29 04:17:51;;;;;;;;;61.80;50.00;;;;;;;;5048673;29;8810;-73
2023/03/29 04:20:42;;;;;;;;;18.80;18.20;;;;;;;;5051791;29;8979;-73
2023/03/29 04:23:16;;;;;;;;;121.75;98.50;;;;;;;;5021568;29;8826;-73
2023/03/29 04:25:52;;;;;;;;;133.50;97.75;;;;;;;;5021042;29;8922;-73
2023/03/29 04:28:44;;;;;;;;;57.80;49.80;;;;;;;;5038940;29;8822;-73
2023/03/29 04:31:27;;;;;;;;;5.00;5.00;;;;;;;;5052189;29;8934;-73
2023/03/29 04:34:18;;;;;;;;;25.60;24.80;;;;;;;;5038047;29;8802;-73
2023/03/29 04:37:09;;;;;;;;;6.60;6.60;;;;;;;;5053355;29;8891;-73
2023/03/29 04:39:41;;;;;;;;;4.60;4.60;;;;;;;;5067875;29;8802;-74
2023/03/29 04:42:14;;;;;;;;;18.40;18.20;;;;;;;;5068071;29;8960;-74
2023/03/29 04:44:46;;;;;;;;;8.60;8.60;;;;;;;;5020548;29;8820;-74
2023/03/29 04:47:23;;;;;;;;;17.20;17.00;;;;;;;;5049830;29;8818;-73
2023/03/29 04:49:59;;;;;;;;;5.60;4.40;;;;;;;;5050243;29;8832;-77
2023/03/29 04:52:44;;;;;;;;;5.40;5.00;;;;;;;;5035750;29;8894;-77
2023/03/29 04:55:16;;;;;;;;;10.80;10.20;;;;;;;;5022250;29;8836;-76
2023/03/29 04:57:57;;;;;;;;;7.80;7.80;;;;;;;;4990677;29;9576;-76
2023/03/29 05:00:36;;;;;;;;;3.60;3.60;;;;;;;;5030768;29;8863;-75
2023/03/29 05:03:12;;;;;;;;;1.00;1.00;;;;;;;;5030036;29;8984;-76
2023/03/29 05:05:50;;;;;;;;;0.60;0.60;;;;;;;;5016134;29;8806;-74
2023/03/29 05:08:22;;;;;;;;;0.00;0.00;;;;;;;;5015079;29;8878;-75
2023/03/29 05:11:12;;;;;;;;;0.00;0.00;;;;;;;;5001805;29;8834;-74
2023/03/29 05:14:06;;;;;;;;;7.80;7.80;;;;;;;;5015507;29;8822;-75
2023/03/29 05:16:57;;;;;;;;;1.00;1.00;;;;;;;;5014115;29;8845;-68
2023/03/29 05:19:29;;;;;;;;;0.80;0.80;;;;;;;;4999570;29;8933;-67
2023/03/29 05:22:00;;;;;;;;;1.00;1.00;;;;;;;;5014174;29;8956;-74
2023/03/29 05:24:31;;;;;;;;;2.00;2.00;;;;;;;;5029778;29;8786;-76
2023/03/29 05:27:08;;;;;;;;;1.20;1.20;;;;;;;;5014691;29;8841;-74
2023/03/29 05:29:43;;;;;;;;;2.00;2.00;;;;;;;;4998399;29;8823;-69
2023/03/29 05:32:41;;;;;;;;;10.40;10.40;;;;;;;;5044109;29;8807;-76
2023/03/29 05:35:14;;;;;;;;;2.80;2.80;;;;;;;;4998181;29;8815;-76
2023/03/29 05:37:46;;;;;;;;;1.40;1.00;;;;;;;;5038790;29;8882;-75
2023/03/29 05:40:18;;;;;;;;;11.40;11.00;;;;;;;;5014090;29;9530;-75
2023/03/29 05:43:13;;;;;;;;;0.60;0.60;;;;;;;;4998131;29;8848;-74
2023/03/29 05:45:45;;;;;;;;;1.00;1.00;;;;;;;;5021718;29;8876;-74
2023/03/29 05:48:17;;;;;;;;;4.20;4.00;;;;;;;;5013789;29;8814;-77
2023/03/29 05:50:51;;;;;;;;;31.00;28.00;;;;;;;;5012405;29;8929;-76
2023/03/29 05:53:24;;;;;;;;;4.40;4.40;;;;;;;;5012832;29;8822;-76
2023/03/29 05:56:15;;;;;;;;;9.80;9.40;;;;;;;;5014811;29;9673;-76
2023/03/29 05:58:48;;;;;;;;;2.40;2.40;;;;;;;;4997493;29;8807;-68
2023/03/29 06:01:21;;;;;;;;;2.40;2.40;;;;;;;;5012449;29;8830;-68
2023/03/29 06:04:11;;;;;;;;;73.00;59.00;;;;;;;;5012027;29;8842;-68
2023/03/29 06:06:49;;;;;;;;;12.80;12.40;;;;;;;;5009693;29;8830;-66
2023/03/29 06:09:21;;;;;;;;;1.00;1.00;;;;;;;;5013859;29;8838;-67
2023/03/29 06:12:00;;;;;;;;;0.00;0.00;;;;;;;;5029215;29;8874;-67
2023/03/29 06:14:35;;;;;;;;;1.00;1.00;;;;;;;;5014697;29;8848;-68
2023/03/29 06:17:18;;;;;;;;;0.00;0.00;;;;;;;;5013419;29;8860;-68
2023/03/29 06:19:51;;;;;;;;;1.40;1.40;;;;;;;;5013707;29;8851;-69
2023/03/29 06:22:24;;;;;;;;;1.00;1.00;;;;;;;;5013913;29;8914;-68
2023/03/29 06:24:56;;;;;;;;;1.00;1.00;;;;;;;;5027954;29;9610;-69
2023/03/29 06:27:31;;;;;;;;;0.00;0.00;;;;;;;;5045957;29;8919;-68
2023/03/29 06:30:03;;;;;;;;;34.00;32.80;;;;;;;;5029136;29;8850;-69
2023/03/29 06:32:34;;;;;;;;;0.00;0.00;;;;;;;;5014159;29;8850;-68
2023/03/29 06:35:25;;;;;;;;;1.00;1.00;;;;;;;;5031102;29;8851;-69
2023/03/29 06:38:15;;;;;;;;;0.00;0.00;;;;;;;;5046526;29;8956;-68
2023/03/29 06:41:06;;;;;;;;;0.60;0.60;;;;;;;;5046337;29;8822;-69
2023/03/29 06:43:59;;;;;;;;;0.60;0.60;;;;;;;;5014116;29;8928;-68
2023/03/29 06:46:36;;;;;;;;;0.00;0.00;;;;;;;;5011733;29;8831;-68
2023/03/29 06:49:11;;;;;;;;;0.00;0.00;;;;;;;;5010967;29;8894;-68
2023/03/29 06:52:02;;;;;;;;;0.00;0.00;;;;;;;;5004053;29;8808;-69
2023/03/29 06:54:33;;;;;;;;;0.00;0.00;;;;;;;;5033064;29;8854;-69
2023/03/29 06:57:06;;;;;;;;;0.00;0.00;;;;;;;;5014732;29;8811;-69
2023/03/29 06:59:55;;;;;;;;;0.00;0.00;;;;;;;;5046510;29;9526;-69
2023/03/29 07:02:30;;;;;;;;;0.00;0.00;;;;;;;;5014416;29;8847;-69
2023/03/29 07:05:10;;;;;;;;;0.00;0.00;;;;;;;;5015295;29;8814;-69
2023/03/29 07:08:10;;;;;;;;;3.40;3.40;;;;;;;;5046193;29;8935;-68
2023/03/29 07:10:52;;;;;;;;;1.00;1.00;;;;;;;;5030210;29;8829;-68
2023/03/29 07:13:29;;;;;;;;;0.00;0.00;;;;;;;;5046336;29;8815;-68
2023/03/29 07:16:03;;;;;;;;;1.00;1.00;;;;;;;;5029524;29;9679;-68
2023/03/29 07:18:57;;;;;;;;;1.00;1.00;;;;;;;;5013613;29;8811;-68
2023/03/29 07:21:47;;;;;;;;;0.00;0.00;;;;;;;;5032018;29;8807;-69
2023/03/29 07:24:20;;;;;;;;;0.00;0.00;;;;;;;;5029335;29;9569;-69
2023/03/29 07:26:51;;;;;;;;;4.60;4.60;;;;;;;;5014910;29;8813;-68
2023/03/29 07:29:22;;;;;;;;;2.00;2.00;;;;;;;;5029334;29;8794;-68
2023/03/29 07:31:55;;;;;;;;;0.00;0.00;;;;;;;;5029599;29;8810;-68
2023/03/29 07:34:47;;;;;;;;;24.00;23.60;;;;;;;;5040063;29;8889;-68
2023/03/29 07:37:38;;;;;;;;;6.00;5.80;;;;;;;;5045907;29;8867;-68
2023/03/29 07:40:17;;;;;;;;;2.00;1.20;;;;;;;;5042690;29;8801;-68
2023/03/29 07:43:06;;;;;;;;;16.80;15.60;;;;;;;;5024926;29;8933;-69
2023/03/29 07:45:40;;;;;;;;;22.20;22.20;;;;;;;;5042622;29;8903;-68
2023/03/29 07:48:14;;;;;;;;;18.40;18.40;;;;;;;;5029811;29;8809;-68
2023/03/29 07:50:55;;;;;;;;;12.00;12.00;;;;;;;;5028457;29;8836;-68
2023/03/29 07:53:32;;;;;;;;;1.00;1.00;;;;;;;;5001909;29;8768;-68
2023/03/29 07:56:07;;;;;;;;;3.80;2.00;;;;;;;;5048563;29;8820;-68
2023/03/29 07:58:53;;;;;;;;;0.00;0.00;;;;;;;;5050940;29;8808;-68
2023/03/29 08:01:24;;;;;;;;;0.00;0.00;;;;;;;;5048420;29;8848;-68
2023/03/29 08:04:14;;;;;;;;;1.00;1.00;;;;;;;;5023254;29;9582;-68
2023/03/29 08:07:05;;;;;;;;;1.00;1.00;;;;;;;;5016462;29;8870;-68
2023/03/29 08:10:00;;;;;;;;;0.00;0.00;;;;;;;;5029065;29;8826;-68
2023/03/29 08:12:46;;;;;;;;;1.00;1.00;;;;;;;;5041298;29;8852;-68
2023/03/29 08:15:17;;;;;;;;;0.80;0.80;;;;;;;;5039982;29;8978;-69
2023/03/29 08:17:48;;;;;;;;;0.60;0.60;;;;;;;;5031158;29;8832;-68
2023/03/29 08:20:20;;;;;;;;;0.00;0.00;;;;;;;;5055293;29;8848;-68
2023/03/29 08:22:55;;;;;;;;;0.00;0.00;;;;;;;;5045627;29;8872;-68
2023/03/29 08:25:34;;;;;;;;;1.00;1.00;;;;;;;;5044988;29;8994;-68
2023/03/29 08:28:05;;;;;;;;;7.60;7.40;;;;;;;;5041789;29;8994;-69
2023/03/29 08:30:56;;;;;;;;;0.00;0.00;;;;;;;;5038331;29;8854;-68
2023/03/29 08:33:45;;;;;;;;;0.00;0.00;;;;;;;;5064400;29;8828;-68
2023/03/29 08:36:35;;;;;;;;;0.00;0.00;;;;;;;;5065163;29;8840;-68
2023/03/29 08:39:13;;;;;;;;;3.80;3.80;;;;;;;;5047763;29;8858;-69
2023/03/29 08:41:57;;;;;;;;;6.00;6.00;;;;;;;;5048285;29;9556;-68
2023/03/29 08:44:42;;;;;;;;;1.00;1.00;;;;;;;;5062437;29;8841;-68
2023/03/29 08:47:24;;;;;;;;;10.80;10.80;;;;;;;;5047859;29;8820;-68
2023/03/29 08:49:56;;;;;;;;;2.80;2.80;;;;;;;;5064475;29;8824;-68
2023/03/29 08:52:35;;;;;;;;;2.00;2.00;;;;;;;;5032508;29;8800;-68
2023/03/29 08:55:22;;;;;;;;;5.80;5.80;;;;;;;;5020201;29;8897;-76
2023/03/29 08:58:14;;;;;;;;;6.00;6.00;;;;;;;;5015913;29;8835;-75
2023/03/29 09:00:53;;;;;;;;;1.00;1.00;;;;;;;;5012837;29;8903;-75
2023/03/29 09:03:28;;;;;;;;;0.40;0.40;;;;;;;;5012851;29;9016;-76
2023/03/29 09:06:05;;;;;;;;;2.00;2.00;;;;;;;;5001390;29;8952;-74
2023/03/29 09:08:45;;;;;;;;;0.00;0.00;;;;;;;;5032061;29;9579;-75
2023/03/29 09:11:22;;;;;;;;;2.60;2.00;;;;;;;;5016823;29;8809;-76
2023/03/29 09:14:12;;;;;;;;;1.40;1.40;;;;;;;;5014854;29;8836;-76
2023/03/29 09:16:44;;;;;;;;;11.40;7.40;;;;;;;;5014909;29;8840;-76
2023/03/29 09:19:24;;;;;;;;;0.80;0.80;;;;;;;;5029493;29;8867;-76
2023/03/29 09:22:05;;;;;;;;;1.80;1.80;;;;;;;;5030212;29;8844;-75
2023/03/29 09:24:55;;;;;;;;;1.00;1.00;;;;;;;;5046386;29;8933;-75
2023/03/29 09:27:33;;;;;;;;;0.00;0.00;;;;;;;;4999408;29;8820;-75
2023/03/29 09:30:25;;;;;;;;;2.60;2.60;;;;;;;;5014839;29;8805;-73
2023/03/29 09:33:28;;;;;;;;;0.00;0.00;;;;;;;;5016858;29;9576;-74
2023/03/29 09:36:23;;;;;;;;;2.00;2.00;;;;;;;;5000769;29;9587;-76
2023/03/29 09:38:55;;;;;;;;;1.00;1.00;;;;;;;;5028463;29;8947;-76
2023/03/29 09:41:34;;;;;;;;;0.00;0.00;;;;;;;;5014442;29;8812;-74
2023/03/29 09:44:09;;;;;;;;;1.60;1.60;;;;;;;;5013999;29;8842;-75
2023/03/29 09:46:43;;;;;;;;;0.00;0.00;;;;;;;;5013128;29;8806;-78
2023/03/29 09:49:18;;;;;;;;;2.00;2.00;;;;;;;;5023294;29;8829;-76
2023/03/29 09:51:50;;;;;;;;;0.80;0.80;;;;;;;;5009489;29;8958;-77
2023/03/29 09:54:23;;;;;;;;;1.00;1.00;;;;;;;;5001605;29;8866;-78
2023/03/29 09:57:17;;;;;;;;;7.40;6.40;;;;;;;;5036363;29;8908;-77
2023/03/29 09:59:50;;;;;;;;;0.00;0.00;;;;;;;;5033345;29;8794;-76
2023/03/29 10:02:21;;;;;;;;;0.75;0.75;;;;;;;;5032673;29;8837;-75
2023/03/29 10:05:02;;;;;;;;;2.40;2.40;;;;;;;;5033043;29;8902;-77
2023/03/29 10:07:53;;;;;;;;;3.60;3.60;;;;;;;;5035219;29;8794;-76
2023/03/29 10:10:29;;;;;;;;;0.00;0.00;;;;;;;;5065395;29;8818;-78
2023/03/29 10:13:03;;;;;;;;;0.00;0.00;;;;;;;;5048489;29;8794;-76
2023/03/29 10:15:57;;;;;;;;;2.40;2.40;;;;;;;;5034880;29;8841;-79
2023/03/29 10:18:49;;;;;;;;;1.20;1.20;;;;;;;;5034385;29;8854;-77
2023/03/29 10:21:41;;;;;;;;;2.00;1.75;;;;;;;;5048443;29;8953;-75
2023/03/29 10:24:12;;;;;;;;;3.60;3.00;;;;;;;;5052268;29;8915;-74
2023/03/29 10:26:43;;;;;;;;;0.00;0.00;;;;;;;;5005368;29;8948;-75
2023/03/29 10:29:15;;;;;;;;;1.25;1.25;;;;;;;;5031658;29;8921;-75
2023/03/29 10:31:46;;;;;;;;;0.00;0.00;;;;;;;;5048047;29;8849;-77
2023/03/29 10:34:36;;;;;;;;;64.00;51.80;;;;;;;;5047975;29;9564;-69
2023/03/29 10:37:09;;;;;;;;;2.00;1.80;;;;;;;;5043188;29;8828;-69
2023/03/29 10:39:40;;;;;;;;;1.20;1.20;;;;;;;;5056144;29;8822;-71
2023/03/29 10:42:16;;;;;;;;;1.00;1.00;;;;;;;;5033504;29;9517;-70
2023/03/29 10:44:57;;;;;;;;;2.00;2.00;;;;;;;;5049342;29;8794;-70
2023/03/29 10:47:33;;;;;;;;;0.00;0.00;;;;;;;;5049528;29;8826;-71
2023/03/29 10:50:04;;;;;;;;;6.00;4.00;;;;;;;;5049768;29;8782;-71
2023/03/29 10:52:35;;;;;;;;;1.00;1.00;;;;;;;;5049739;29;8857;-69
2023/03/29 10:55:11;;;;;;;;;5.25;3.75;;;;;;;;5040981;29;8864;-69
2023/03/29 10:57:43;;;;;;;;;3.40;3.40;;;;;;;;5049477;29;10277;-68
2023/03/29 11:00:23;;;;;;;;;2.00;2.00;;;;;;;;5063864;29;8806;-67
2023/03/29 11:03:21;;;;;;;;;0.00;0.00;;;;;;;;5048618;29;11480;-68
2023/03/29 11:06:27;;;;;;;;;13.00;11.40;;;;;;;;5048041;29;8786;-68
2023/03/29 11:09:01;;;;;;;;;2.00;2.00;;;;;;;;4987161;29;8806;-67
2023/03/29 11:11:57;;;;;;;;;0.60;0.60;;;;;;;;5053965;29;9455;-70
2023/03/29 11:14:40;;;;;;;;;2.40;2.40;;;;;;;;5066048;29;8789;-68
2023/03/29 11:17:17;;;;;;;;;1.80;1.80;;;;;;;;5065663;29;8873;-68
2023/03/29 11:19:57;;;;;;;;;65.40;51.00;;;;;;;;5033172;29;9509;-68
2023/03/29 11:22:29;;;;;;;;;9.00;9.00;;;;;;;;5048802;29;8818;-69
2023/03/29 11:24:59;;;;;;;;;10.20;10.20;;;;;;;;5048775;29;8852;-67
2023/03/29 11:27:46;;;;;;;;;0.00;0.00;;;;;;;;5032678;29;8782;-68
2023/03/29 11:30:32;;;;;;;;;0.00;0.00;;;;;;;;5033107;29;9553;-67
2023/03/29 11:33:23;;;;;;;;;0.00;0.00;;;;;;;;5048647;29;8782;-67
2023/03/29 11:35:57;;;;;;;;;0.00;0.00;;;;;;;;5049104;29;8798;-67
2023/03/29 11:38:37;;;;;;;;;1.20;1.20;;;;;;;;5047290;29;8810;-67
2023/03/29 11:41:10;;;;;;;;;18.80;17.60;;;;;;;;5048482;29;9542;-68
2023/03/29 11:43:51;;;;;;;;;7.20;7.00;;;;;;;;5032893;29;8817;-70
2023/03/29 11:46:34;;;;;;;;;1.00;1.00;;;;;;;;5048794;29;8782;-69
2023/03/29 11:49:14;;;;;;;;;0.80;0.80;;;;;;;;5033034;29;8801;-67
2023/03/29 11:52:09;;;;;;;;;1.00;1.00;;;;;;;;5064959;29;8814;-67
2023/03/29 11:54:44;;;;;;;;;1.60;1.60;;;;;;;;5027724;29;8909;-67
2023/03/29 11:57:26;;;;;;;;;6.80;6.80;;;;;;;;5032055;29;8802;-67
2023/03/29 12:00:28;;;;;;;;;0.00;0.00;;;;;;;;5076340;29;8905;-67
2023/03/29 12:03:05;;;;;;;;;0.25;0.25;;;;;;;;5048322;29;8809;-67
2023/03/29 12:05:51;;;;;;;;;0.00;0.00;;;;;;;;5064764;29;8837;-67
2023/03/29 12:08:28;;;;;;;;;83.40;60.60;;;;;;;;5044208;29;8831;-68
2023/03/29 12:11:18;;;;;;;;;16.20;15.20;;;;;;;;5050093;29;8802;-67
2023/03/29 12:14:01;;;;;;;;;4.60;4.60;;;;;;;;5031162;29;8826;-67
2023/03/29 12:16:39;;;;;;;;;0.80;0.80;;;;;;;;5061697;29;8968;-68
2023/03/29 12:19:16;;;;;;;;;2.50;2.50;;;;;;;;5046779;29;8802;-69
2023/03/29 12:22:07;;;;;;;;;0.00;0.00;;;;;;;;5062914;29;8908;-69
2023/03/29 12:24:42;;;;;;;;;0.00;0.00;;;;;;;;5063073;29;8817;-69
2023/03/29 12:27:25;;;;;;;;;2.25;2.25;;;;;;;;5046371;29;8805;-69
2023/03/29 12:30:14;;;;;;;;;34.20;27.80;;;;;;;;5046417;29;8834;-69
2023/03/29 12:33:03;;;;;;;;;7.80;7.80;;;;;;;;5063160;29;8818;-68
2023/03/29 12:36:05;;;;;;;;;0.50;0.50;;;;;;;;5062705;29;9529;-69
2023/03/29 12:39:15;;;;;;;;;3.80;3.80;;;;;;;;5022350;29;8828;-69
2023/03/29 12:42:15;;;;;;;;;1.40;1.40;;;;;;;;5066118;29;8810;-69
2023/03/29 12:45:13;;;;;;;;;2.75;2.25;;;;;;;;5063162;29;8978;-70
2023/03/29 12:47:46;;;;;;;;;92.40;68.40;;;;;;;;5050485;29;9526;-69
2023/03/29 12:50:22;;;;;;;;;7.60;7.60;;;;;;;;5051563;29;8818;-68
2023/03/29 12:53:13;;;;;;;;;0.00;0.00;;;;;;;;5034799;29;9627;-69
2023/03/29 12:55:49;;;;;;;;;0.00;0.00;;;;;;;;5056875;29;8964;-68
2023/03/29 12:58:40;;;;;;;;;2.00;2.00;;;;;;;;5066395;29;8841;-69
2023/03/29 13:01:30;;;;;;;;;1.00;1.00;;;;;;;;5049955;29;8804;-69
2023/03/29 13:04:21;;;;;;;;;1.25;1.25;;;;;;;;5050174;29;8900;-69
2023/03/29 13:07:01;;;;;;;;;4.40;4.40;;;;;;;;5068296;29;8793;-69
2023/03/29 13:09:45;;;;;;;;;0.00;0.00;;;;;;;;5035919;29;8936;-71
2023/03/29 13:12:28;;;;;;;;;0.50;0.50;;;;;;;;5051478;29;9563;-69
2023/03/29 13:15:20;;;;;;;;;4.80;4.80;;;;;;;;5050745;29;8806;-71
2023/03/29 13:18:15;;;;;;;;;20.00;19.40;;;;;;;;5051274;29;8935;-70
2023/03/29 13:21:04;;;;;;;;;3.40;3.40;;;;;;;;5067954;29;8814;-71
2023/03/29 13:23:38;;;;;;;;;45.80;40.80;;;;;;;;5035622;29;8826;-69
2023/03/29 13:26:28;;;;;;;;;3.80;3.80;;;;;;;;5064217;29;8804;-67
2023/03/29 13:29:26;;;;;;;;;6.00;5.20;;;;;;;;5064630;29;8786;-67
2023/03/29 13:32:15;;;;;;;;;3.50;3.50;;;;;;;;5047694;29;8999;-66
2023/03/29 13:34:47;;;;;;;;;17.50;16.25;;;;;;;;5048921;29;8936;-68
2023/03/29 13:37:19;;;;;;;;;1.00;1.00;;;;;;;;5049238;29;8825;-67
2023/03/29 13:39:51;;;;;;;;;1.00;1.00;;;;;;;;5031399;29;8820;-68
2023/03/29 13:42:42;;;;;;;;;0.00;0.00;;;;;;;;5056230;29;8814;-69
2023/03/29 13:45:25;;;;;;;;;0.00;0.00;;;;;;;;5062177;29;8849;-70
2023/03/29 13:48:02;;;;;;;;;0.50;0.50;;;;;;;;5067862;29;8833;-70
2023/03/29 13:50:37;;;;;;;;;4.00;4.00;;;;;;;;5068506;29;8798;-70
2023/03/29 13:53:12;;;;;;;;;0.00;0.00;;;;;;;;5031476;29;8884;-68
2023/03/29 13:56:02;;;;;;;;;1.25;1.25;;;;;;;;5062913;29;8806;-69
2023/03/29 13:58:36;;;;;;;;;40.80;36.60;;;;;;;;5047235;29;8888;-68
2023/03/29 14:01:24;;;;;;;;;5.75;5.75;;;;;;;;5062129;29;8810;-69
2023/03/29 14:04:19;;;;;;;;;9.40;9.40;;;;;;;;5049506;29;8829;-69
2023/03/29 14:06:52;;;;;;;;;11.40;11.00;;;;;;;;5063368;29;9661;-70
2023/03/29 14:09:29;;;;;;;;;1.50;1.50;;;;;;;;5047280;29;8842;-69
2023/03/29 14:12:00;;;;;;;;;1.00;1.00;;;;;;;;5032514;29;8818;-69
2023/03/29 14:14:31;;;;;;;;;1.00;1.00;;;;;;;;5033040;29;8817;-70
2023/03/29 14:17:04;;;;;;;;;4.00;3.00;;;;;;;;5047191;29;9625;-70
2023/03/29 14:19:56;;;;;;;;;5.40;5.40;;;;;;;;5061895;29;8822;-70
2023/03/29 14:22:32;;;;;;;;;8.80;8.80;;;;;;;;5031076;29;8874;-70
2023/03/29 14:25:11;;;;;;;;;2.00;2.00;;;;;;;;5046816;29;8835;-70
2023/03/29 14:27:43;;;;;;;;;64.60;52.20;;;;;;;;5043086;29;8822;-69
2023/03/29 14:30:33;;;;;;;;;17.80;14.80;;;;;;;;5059710;29;8926;-69
2023/03/29 14:33:04;;;;;;;;;5.25;3.25;;;;;;;;5056591;29;8938;-69
2023/03/29 14:35:35;;;;;;;;;51.75;42.00;;;;;;;;5062385;29;11054;-71
2023/03/29 14:38:11;;;;;;;;;5.00;5.00;;;;;;;;5034452;29;8821;-70
2023/03/29 14:40:43;;;;;;;;;1.25;1.25;;;;;;;;5064686;29;8798;-68
2023/03/29 14:43:16;;;;;;;;;3.25;3.25;;;;;;;;5065220;29;9553;-68
2023/03/29 14:45:48;;;;;;;;;1.00;1.00;;;;;;;;5034574;29;8848;-68
2023/03/29 14:48:19;;;;;;;;;1.75;1.50;;;;;;;;5048222;29;8790;-69
2023/03/29 14:50:50;;;;;;;;;4.50;4.00;;;;;;;;5066528;29;8858;-70
2023/03/29 14:53:22;;;;;;;;;2.40;2.40;;;;;;;;5034350;29;11453;-68
2023/03/29 14:55:54;;;;;;;;;0.00;0.00;;;;;;;;5031438;29;8820;-68
2023/03/29 14:58:31;;;;;;;;;26.40;25.60;;;;;;;;5029976;29;8792;-70
2023/03/29 15:01:04;;;;;;;;;2.00;2.00;;;;;;;;5029902;29;9597;-71
2023/03/29 15:03:42;;;;;;;;;4.60;4.60;;;;;;;;5029567;29;8840;-70
2023/03/29 15:06:13;;;;;;;;;19.20;13.80;;;;;;;;4999857;29;8820;-70
2023/03/29 15:08:44;;;;;;;;;3.40;3.40;;;;;;;;5009432;29;9665;-68
2023/03/29 15:11:20;;;;;;;;;74.60;58.00;;;;;;;;5028825;29;8817;-68
2023/03/29 15:13:59;;;;;;;;;8.20;8.20;;;;;;;;5010950;29;8865;-69
2023/03/29 15:16:30;;;;;;;;;3.00;3.00;;;;;;;;5028760;29;8847;-70
2023/03/29 15:19:01;;;;;;;;;3.00;3.00;;;;;;;;5045843;29;8825;-70
2023/03/29 15:21:34;;;;;;;;;4.20;4.20;;;;;;;;5012602;29;8838;-69
2023/03/29 15:24:05;;;;;;;;;3.00;3.00;;;;;;;;5012984;29;8843;-69
2023/03/29 15:26:37;;;;;;;;;3.00;3.00;;;;;;;;5029087;29;8814;-69
2023/03/29 15:29:12;;;;;;;;;3.20;3.20;;;;;;;;5030344;29;9612;-69
2023/03/29 15:31:52;;;;;;;;;3.80;3.80;;;;;;;;5029764;29;8807;-69
2023/03/29 15:34:24;;;;;;;;;3.40;3.40;;;;;;;;5014213;29;8812;-69
2023/03/29 15:36:58;;;;;;;;;16.00;15.80;;;;;;;;5029508;29;8808;-69
2023/03/29 15:39:30;;;;;;;;;25.00;24.40;;;;;;;;5030351;29;8802;-69
2023/03/29 15:42:01;;;;;;;;;5.20;5.20;;;;;;;;5014242;29;9641;-69
2023/03/29 15:44:34;;;;;;;;;2.20;2.20;;;;;;;;5028587;29;8969;-69
2023/03/29 15:47:08;;;;;;;;;4.60;4.60;;;;;;;;5029351;29;8826;-69
2023/03/29 15:49:40;;;;;;;;;9.60;9.60;;;;;;;;5029472;29;8798;-69
2023/03/29 15:52:10;;;;;;;;;4.50;3.50;;;;;;;;5029322;29;9545;-69
2023/03/29 15:54:42;;;;;;;;;6.00;5.40;;;;;;;;5034233;29;11550;-69
2023/03/29 15:57:14;;;;;;;;;6.00;5.20;;;;;;;;5045518;29;8846;-69
2023/03/29 15:59:45;;;;;;;;;3.00;3.00;;;;;;;;5043438;29;8815;-69
2023/03/29 16:02:20;;;;;;;;;5.75;5.25;;;;;;;;5032736;29;8837;-69